createdAt,value
2017-09-15T00:00:54.434Z,1020.1
2017-09-15T00:01:56.124Z,1020.0
2017-09-15T00:02:57.816Z,1020.1
2017-09-15T00:03:59.532Z,1020.1
2017-09-15T00:05:01.206Z,1020.1
2017-09-15T00:06:02.924Z,1020.1
2017-09-15T00:07:04.619Z,1020.0
2017-09-15T00:08:06.292Z,1020.1
2017-09-15T00:09:07.994Z,1020.1
2017-09-15T00:10:09.775Z,1020.1
2017-09-15T00:11:11.443Z,1020.1
2017-09-15T00:12:13.159Z,1020.1
2017-09-15T00:13:14.847Z,1020.2
2017-09-15T00:14:16.527Z,1020.1
2017-09-15T00:15:18.221Z,1020.1
2017-09-15T00:16:19.959Z,1020.1
2017-09-15T00:17:21.671Z,1020.2
2017-09-15T00:18:23.388Z,1020.1
2017-09-15T00:19:25.086Z,1020.1
2017-09-15T00:20:26.782Z,1020.1
2017-09-15T00:21:28.475Z,1020.1
2017-09-15T00:22:30.185Z,1020.1
2017-09-15T00:23:31.887Z,1020.1
2017-09-15T00:24:33.616Z,1020.0
2017-09-15T00:25:35.308Z,1020.1
2017-09-15T00:26:36.991Z,1020.0
2017-09-15T00:27:38.727Z,1020.0
2017-09-15T00:28:40.475Z,1020.1
2017-09-15T00:29:42.192Z,1020.1
2017-09-15T00:30:43.881Z,1020.1
2017-09-15T00:31:45.625Z,1020.1
2017-09-15T00:32:47.319Z,1020.1
2017-09-15T00:33:49.215Z,1020.1
2017-09-15T00:34:50.902Z,1020.0
2017-09-15T00:35:52.680Z,1020.0
2017-09-15T00:36:54.385Z,1020.0
2017-09-15T00:37:56.141Z,1020.0
2017-09-15T00:38:57.839Z,1020.0
2017-09-15T00:39:59.533Z,1020.0
2017-09-15T00:41:01.216Z,1020.0
2017-09-15T00:42:02.921Z,1020.1
2017-09-15T00:43:04.631Z,1020.0
2017-09-15T00:44:06.346Z,1020.0
2017-09-15T00:45:08.048Z,1020.0
2017-09-15T00:46:09.743Z,1020.0
2017-09-15T00:47:11.469Z,1019.9
2017-09-15T00:48:13.170Z,1020.0
2017-09-15T00:49:14.887Z,1019.9
2017-09-15T00:50:16.564Z,1019.9
2017-09-15T00:51:18.246Z,1019.9
2017-09-15T00:52:19.934Z,1019.8
2017-09-15T00:53:21.621Z,1019.9
2017-09-15T00:54:23.328Z,1019.8
2017-09-15T00:55:25.089Z,1019.8
2017-09-15T00:56:26.796Z,1019.8
2017-09-15T00:57:28.494Z,1019.8
2017-09-15T00:58:30.191Z,1019.7
2017-09-15T00:59:31.871Z,1019.7
2017-09-15T01:00:33.550Z,1019.7
2017-09-15T01:01:35.240Z,1019.7
2017-09-15T01:02:36.916Z,1019.7
2017-09-15T01:03:38.602Z,1019.7
2017-09-15T01:04:40.306Z,1019.7
2017-09-15T01:05:42.010Z,1019.8
2017-09-15T01:06:43.713Z,1019.7
2017-09-15T01:07:45.447Z,1019.7
2017-09-15T01:08:47.202Z,1019.7
2017-09-15T01:09:48.898Z,1019.7
2017-09-15T01:10:50.625Z,1019.7
2017-09-15T01:11:52.342Z,1019.6
2017-09-15T01:12:54.037Z,1019.7
2017-09-15T01:13:55.720Z,1019.7
2017-09-15T01:14:57.436Z,1019.7
2017-09-15T01:15:59.164Z,1019.7
2017-09-15T01:17:00.823Z,1019.8
2017-09-15T01:18:02.522Z,1019.8
2017-09-15T01:19:04.221Z,1019.7
2017-09-15T01:20:05.916Z,1019.8
2017-09-15T01:21:07.597Z,1019.8
2017-09-15T01:22:09.288Z,1019.8
2017-09-15T01:23:10.994Z,1019.8
2017-09-15T01:24:12.672Z,1019.8
2017-09-15T01:25:14.399Z,1019.8
2017-09-15T01:26:16.096Z,1019.9
2017-09-15T01:27:17.801Z,1019.8
2017-09-15T01:28:19.500Z,1019.9
2017-09-15T01:29:21.199Z,1019.8
2017-09-15T01:30:22.904Z,1019.8
2017-09-15T01:31:24.598Z,1019.8
2017-09-15T01:32:26.286Z,1019.8
2017-09-15T01:33:27.987Z,1019.9
2017-09-15T01:34:29.689Z,1019.8
2017-09-15T01:35:31.397Z,1019.8
2017-09-15T01:36:33.097Z,1019.8
2017-09-15T01:37:34.795Z,1019.9
2017-09-15T01:38:36.495Z,1019.8
2017-09-15T01:39:38.210Z,1019.9
2017-09-15T01:40:39.924Z,1019.8
2017-09-15T01:41:41.617Z,1019.8
2017-09-15T01:42:43.315Z,1019.8
2017-09-15T01:43:44.979Z,1019.7
2017-09-15T01:44:46.757Z,1019.8
2017-09-15T01:45:48.469Z,1019.7
2017-09-15T01:46:50.150Z,1019.8
2017-09-15T01:47:51.876Z,1019.8
2017-09-15T01:48:53.579Z,1019.7
2017-09-15T01:49:55.319Z,1019.7
2017-09-15T01:50:57.007Z,1019.7
2017-09-15T01:51:58.694Z,1019.6
2017-09-15T01:53:00.385Z,1019.6
2017-09-15T01:54:02.089Z,1019.6
2017-09-15T01:55:03.907Z,1019.6
2017-09-15T01:56:05.575Z,1019.7
2017-09-15T01:57:07.269Z,1019.6
2017-09-15T01:58:08.943Z,1019.6
2017-09-15T01:59:10.673Z,1019.6
2017-09-15T02:00:12.364Z,1019.6
2017-09-15T02:01:14.060Z,1019.7
2017-09-15T02:02:15.771Z,1019.6
2017-09-15T02:03:17.465Z,1019.6
2017-09-15T02:04:19.154Z,1019.6
2017-09-15T02:05:20.851Z,1019.6
2017-09-15T02:06:22.532Z,1019.6
2017-09-15T02:07:24.243Z,1019.6
2017-09-15T02:08:25.940Z,1019.6
2017-09-15T02:09:27.693Z,1019.6
2017-09-15T02:10:29.391Z,1019.6
2017-09-15T02:11:31.054Z,1019.6
2017-09-15T02:12:32.736Z,1019.6
2017-09-15T02:13:34.412Z,1019.6
2017-09-15T02:14:36.120Z,1019.6
2017-09-15T02:15:37.832Z,1019.6
2017-09-15T02:16:39.513Z,1019.5
2017-09-15T02:17:42.016Z,1019.6
2017-09-15T02:18:43.694Z,1019.6
2017-09-15T02:19:45.434Z,1019.5
2017-09-15T02:20:47.171Z,1019.5
2017-09-15T02:21:48.844Z,1019.5
2017-09-15T02:22:50.526Z,1019.6
2017-09-15T02:23:52.211Z,1019.5
2017-09-15T02:24:53.941Z,1019.6
2017-09-15T02:25:55.648Z,1019.6
2017-09-15T02:26:57.395Z,1019.5
2017-09-15T02:27:59.098Z,1019.5
2017-09-15T02:29:00.799Z,1019.6
2017-09-15T02:30:02.513Z,1019.5
2017-09-15T02:31:04.206Z,1019.6
2017-09-15T02:32:05.899Z,1019.5
2017-09-15T02:33:07.602Z,1019.5
2017-09-15T02:34:09.278Z,1019.5
2017-09-15T02:35:10.985Z,1019.6
2017-09-15T02:36:12.682Z,1019.6
2017-09-15T02:37:14.378Z,1019.6
2017-09-15T02:38:16.088Z,1019.5
2017-09-15T02:39:17.778Z,1019.6
2017-09-15T02:40:19.475Z,1019.6
2017-09-15T02:41:21.160Z,1019.5
2017-09-15T02:42:22.866Z,1019.5
2017-09-15T02:43:24.562Z,1019.5
2017-09-15T02:44:26.272Z,1019.5
2017-09-15T02:45:27.947Z,1019.5
2017-09-15T02:46:29.653Z,1019.5
2017-09-15T02:47:31.342Z,1019.5
2017-09-15T02:48:33.051Z,1019.5
2017-09-15T02:49:34.731Z,1019.5
2017-09-15T02:50:36.457Z,1019.5
2017-09-15T02:51:38.130Z,1019.5
2017-09-15T02:52:39.844Z,1019.4
2017-09-15T02:53:41.538Z,1019.5
2017-09-15T02:54:43.242Z,1019.5
2017-09-15T02:55:44.917Z,1019.5
2017-09-15T02:56:46.619Z,1019.5
2017-09-15T02:57:48.382Z,1019.5
2017-09-15T02:58:50.070Z,1019.5
2017-09-15T02:59:51.783Z,1019.5
2017-09-15T03:00:53.492Z,1019.5
2017-09-15T03:01:55.273Z,1019.5
2017-09-15T03:02:56.940Z,1019.5
2017-09-15T03:03:58.660Z,1019.5
2017-09-15T03:05:00.382Z,1019.5
2017-09-15T03:06:02.132Z,1019.5
2017-09-15T03:07:03.807Z,1019.5
2017-09-15T03:08:05.522Z,1019.6
2017-09-15T03:09:07.213Z,1019.5
2017-09-15T03:10:08.886Z,1019.5
2017-09-15T03:11:10.585Z,1019.5
2017-09-15T03:12:12.282Z,1019.5
2017-09-15T03:13:13.986Z,1019.5
2017-09-15T03:14:15.673Z,1019.5
2017-09-15T03:15:17.358Z,1019.6
2017-09-15T03:16:19.049Z,1019.5
2017-09-15T03:17:20.754Z,1019.5
2017-09-15T03:18:22.438Z,1019.5
2017-09-15T03:19:24.145Z,1019.5
2017-09-15T03:20:25.832Z,1019.5
2017-09-15T03:21:27.526Z,1019.5
2017-09-15T03:22:29.221Z,1019.5
2017-09-15T03:23:30.902Z,1019.5
2017-09-15T03:24:32.598Z,1019.5
2017-09-15T03:25:34.287Z,1019.5
2017-09-15T03:26:35.978Z,1019.5
2017-09-15T03:27:37.660Z,1019.5
2017-09-15T03:28:39.369Z,1019.5
2017-09-15T03:29:41.096Z,1019.5
2017-09-15T03:30:42.790Z,1019.5
2017-09-15T03:31:44.486Z,1019.5
2017-09-15T03:32:46.171Z,1019.5
2017-09-15T03:33:47.863Z,1019.5
2017-09-15T03:34:49.571Z,1019.5
2017-09-15T03:35:51.282Z,1019.5
2017-09-15T03:36:52.980Z,1019.5
2017-09-15T03:37:54.661Z,1019.5
2017-09-15T03:38:56.364Z,1019.5
2017-09-15T03:39:58.053Z,1019.5
2017-09-15T03:40:59.763Z,1019.4
2017-09-15T03:42:01.441Z,1019.4
2017-09-15T03:43:03.127Z,1019.4
2017-09-15T03:44:04.837Z,1019.4
2017-09-15T03:45:06.511Z,1019.4
2017-09-15T03:46:08.205Z,1019.4
2017-09-15T03:47:09.888Z,1019.4
2017-09-15T03:48:11.573Z,1019.4
2017-09-15T03:49:13.252Z,1019.4
2017-09-15T03:50:14.946Z,1019.4
2017-09-15T03:51:16.649Z,1019.4
2017-09-15T03:52:18.348Z,1019.4
2017-09-15T03:53:20.037Z,1019.4
2017-09-15T03:54:21.748Z,1019.4
2017-09-15T03:55:23.454Z,1019.5
2017-09-15T03:56:25.175Z,1019.4
2017-09-15T03:57:26.898Z,1019.4
2017-09-15T03:58:28.598Z,1019.4
2017-09-15T03:59:30.288Z,1019.4
2017-09-15T04:00:31.968Z,1019.5
2017-09-15T04:01:33.652Z,1019.5
2017-09-15T04:02:35.360Z,1019.5
2017-09-15T04:03:37.074Z,1019.5
2017-09-15T04:04:38.780Z,1019.5
2017-09-15T04:05:40.471Z,1019.5
2017-09-15T04:06:42.177Z,1019.5
2017-09-15T04:07:43.866Z,1019.4
2017-09-15T04:08:45.606Z,1019.5
2017-09-15T04:09:47.298Z,1019.4
2017-09-15T04:10:49.095Z,1019.5
2017-09-15T04:11:50.788Z,1019.4
2017-09-15T04:12:52.467Z,1019.4
2017-09-15T04:13:54.164Z,1019.4
2017-09-15T04:14:55.856Z,1019.4
2017-09-15T04:15:57.555Z,1019.5
2017-09-15T04:16:59.273Z,1019.4
2017-09-15T04:18:01.862Z,1019.4
2017-09-15T04:19:03.545Z,1019.4
2017-09-15T04:20:05.285Z,1019.4
2017-09-15T04:21:06.987Z,1019.4
2017-09-15T04:22:08.689Z,1019.4
2017-09-15T04:23:10.393Z,1019.4
2017-09-15T04:24:12.070Z,1019.4
2017-09-15T04:25:13.809Z,1019.4
2017-09-15T04:26:15.493Z,1019.4
2017-09-15T04:27:17.211Z,1019.3
2017-09-15T04:28:18.900Z,1019.3
2017-09-15T04:29:20.574Z,1019.3
2017-09-15T04:30:22.285Z,1019.3
2017-09-15T04:31:23.969Z,1019.4
2017-09-15T04:32:25.667Z,1019.3
2017-09-15T04:33:27.392Z,1019.3
2017-09-15T04:34:29.072Z,1019.3
2017-09-15T04:35:30.785Z,1019.4
2017-09-15T04:36:32.473Z,1019.3
2017-09-15T04:37:34.191Z,1019.3
2017-09-15T04:38:35.994Z,1019.3
2017-09-15T04:39:37.690Z,1019.3
2017-09-15T04:40:39.362Z,1019.3
2017-09-15T04:41:41.066Z,1019.3
2017-09-15T04:42:42.746Z,1019.3
2017-09-15T04:43:44.456Z,1019.4
2017-09-15T04:44:46.157Z,1019.4
2017-09-15T04:45:47.840Z,1019.4
2017-09-15T04:46:49.618Z,1019.4
2017-09-15T04:47:51.333Z,1019.4
2017-09-15T04:48:53.040Z,1019.4
2017-09-15T04:49:54.713Z,1019.4
2017-09-15T04:50:56.416Z,1019.4
2017-09-15T04:51:58.109Z,1019.4
2017-09-15T04:52:59.797Z,1019.4
2017-09-15T04:54:01.492Z,1019.4
2017-09-15T04:55:03.198Z,1019.4
2017-09-15T04:56:04.898Z,1019.4
2017-09-15T04:57:06.584Z,1019.4
2017-09-15T04:58:08.265Z,1019.4
2017-09-15T04:59:09.976Z,1019.4
2017-09-15T05:00:11.664Z,1019.4
2017-09-15T05:01:13.379Z,1019.4
2017-09-15T05:02:15.120Z,1019.4
2017-09-15T05:03:16.794Z,1019.4
2017-09-15T05:04:18.507Z,1019.4
2017-09-15T05:05:20.174Z,1019.4
2017-09-15T05:06:21.888Z,1019.4
2017-09-15T05:07:23.583Z,1019.4
2017-09-15T05:08:25.322Z,1019.4
2017-09-15T05:09:27.023Z,1019.4
2017-09-15T05:10:28.722Z,1019.4
2017-09-15T05:11:30.441Z,1019.4
2017-09-15T05:12:32.123Z,1019.4
2017-09-15T05:13:33.834Z,1019.4
2017-09-15T05:14:35.527Z,1019.4
2017-09-15T05:15:37.222Z,1019.4
2017-09-15T05:16:38.909Z,1019.4
2017-09-15T05:17:40.613Z,1019.4
2017-09-15T05:18:42.312Z,1019.4
2017-09-15T05:19:44.007Z,1019.5
2017-09-15T05:20:45.703Z,1019.5
2017-09-15T05:21:47.401Z,1019.5
2017-09-15T05:22:49.103Z,1019.5
2017-09-15T05:23:50.794Z,1019.6
2017-09-15T05:24:52.490Z,1019.5
2017-09-15T05:25:54.190Z,1019.6
2017-09-15T05:26:55.872Z,1019.6
2017-09-15T05:27:57.566Z,1019.6
2017-09-15T05:28:59.257Z,1019.6
2017-09-15T05:30:00.963Z,1019.6
2017-09-15T05:31:02.648Z,1019.6
2017-09-15T05:32:04.363Z,1019.6
2017-09-15T05:33:06.083Z,1019.6
2017-09-15T05:34:07.759Z,1019.6
2017-09-15T05:35:09.463Z,1019.7
2017-09-15T05:36:11.146Z,1019.6
2017-09-15T05:37:12.837Z,1019.6
2017-09-15T05:38:14.536Z,1019.7
2017-09-15T05:39:16.218Z,1019.7
2017-09-15T05:40:17.924Z,1019.7
2017-09-15T05:41:19.640Z,1019.7
2017-09-15T05:42:21.336Z,1019.7
2017-09-15T05:43:23.034Z,1019.7
2017-09-15T05:44:24.716Z,1019.7
2017-09-15T05:45:26.403Z,1019.7
2017-09-15T05:46:28.155Z,1019.7
2017-09-15T05:47:29.870Z,1019.7
2017-09-15T05:48:31.577Z,1019.6
2017-09-15T05:49:33.285Z,1019.7
2017-09-15T05:50:34.978Z,1019.7
2017-09-15T05:51:36.654Z,1019.7
2017-09-15T05:52:38.340Z,1019.7
2017-09-15T05:53:40.044Z,1019.7
2017-09-15T05:54:41.741Z,1019.7
2017-09-15T05:55:43.459Z,1019.7
2017-09-15T05:56:45.176Z,1019.7
2017-09-15T05:57:46.892Z,1019.7
2017-09-15T05:58:48.584Z,1019.7
2017-09-15T05:59:50.323Z,1019.7
2017-09-15T06:00:52.011Z,1019.7
2017-09-15T06:01:53.722Z,1019.7
2017-09-15T06:02:55.421Z,1019.7
2017-09-15T06:03:57.156Z,1019.7
2017-09-15T06:04:58.875Z,1019.7
2017-09-15T06:06:00.547Z,1019.7
2017-09-15T06:07:02.257Z,1019.8
2017-09-15T06:08:03.955Z,1019.7
2017-09-15T06:09:05.683Z,1019.8
2017-09-15T06:10:07.359Z,1019.8
2017-09-15T06:11:09.085Z,1019.8
2017-09-15T06:12:10.778Z,1019.8
2017-09-15T06:13:12.509Z,1019.8
2017-09-15T06:14:14.206Z,1019.8
2017-09-15T06:15:15.902Z,1019.8
2017-09-15T06:16:17.591Z,1019.8
2017-09-15T06:17:19.299Z,1019.8
2017-09-15T06:18:21.007Z,1019.8
2017-09-15T06:19:22.664Z,1019.9
2017-09-15T06:20:24.379Z,1019.9
2017-09-15T06:21:26.103Z,1019.8
2017-09-15T06:22:27.806Z,1019.8
2017-09-15T06:23:29.546Z,1019.9
2017-09-15T06:24:31.244Z,1019.9
2017-09-15T06:25:32.930Z,1019.9
2017-09-15T06:26:34.621Z,1019.9
2017-09-15T06:27:36.318Z,1019.9
2017-09-15T06:28:38.030Z,1019.9
2017-09-15T06:29:39.755Z,1019.9
2017-09-15T06:30:41.457Z,1019.9
2017-09-15T06:31:43.160Z,1019.9
2017-09-15T06:32:44.848Z,1020.0
2017-09-15T06:33:46.643Z,1019.9
2017-09-15T06:34:48.346Z,1020.0
2017-09-15T06:35:50.076Z,1020.0
2017-09-15T06:36:51.759Z,1020.0
2017-09-15T06:37:53.468Z,1020.0
2017-09-15T06:38:55.159Z,1020.0
2017-09-15T06:39:56.958Z,1020.0
2017-09-15T06:40:58.657Z,1020.1
2017-09-15T06:42:00.374Z,1020.0
2017-09-15T06:43:02.063Z,1020.1
2017-09-15T06:44:03.751Z,1020.1
2017-09-15T06:45:05.466Z,1020.1
2017-09-15T06:46:07.178Z,1020.1
2017-09-15T06:47:08.878Z,1020.2
2017-09-15T06:48:10.588Z,1020.1
2017-09-15T06:49:12.286Z,1020.2
2017-09-15T06:50:13.984Z,1020.2
2017-09-15T06:51:15.714Z,1020.1
2017-09-15T06:52:17.412Z,1020.2
2017-09-15T06:53:19.107Z,1020.2
2017-09-15T06:54:20.793Z,1020.2
2017-09-15T06:55:22.501Z,1020.2
2017-09-15T06:56:24.200Z,1020.2
2017-09-15T06:57:25.894Z,1020.2
2017-09-15T06:58:27.581Z,1020.2
2017-09-15T06:59:29.285Z,1020.3
2017-09-15T07:00:30.969Z,1020.2
2017-09-15T07:01:32.669Z,1020.3
2017-09-15T07:02:34.374Z,1020.3
2017-09-15T07:03:36.077Z,1020.3
2017-09-15T07:04:37.760Z,1020.3
2017-09-15T07:05:39.466Z,1020.4
2017-09-15T07:06:41.154Z,1020.4
2017-09-15T07:07:42.856Z,1020.4
2017-09-15T07:08:44.560Z,1020.3
2017-09-15T07:09:46.264Z,1020.4
2017-09-15T07:10:47.949Z,1020.4
2017-09-15T07:11:49.661Z,1020.4
2017-09-15T07:12:51.412Z,1020.4
2017-09-15T07:13:53.115Z,1020.4
2017-09-15T07:14:54.844Z,1020.4
2017-09-15T07:15:56.545Z,1020.5
2017-09-15T07:16:58.256Z,1020.4
2017-09-15T07:17:59.961Z,1020.5
2017-09-15T07:19:01.651Z,1020.5
2017-09-15T07:20:03.352Z,1020.5
2017-09-15T07:21:05.063Z,1020.4
2017-09-15T07:22:06.774Z,1020.5
2017-09-15T07:23:08.481Z,1020.4
2017-09-15T07:24:10.200Z,1020.4
2017-09-15T07:25:11.967Z,1020.5
2017-09-15T07:26:13.649Z,1020.5
2017-09-15T07:27:15.421Z,1020.5
2017-09-15T07:28:17.116Z,1020.5
2017-09-15T07:29:18.816Z,1020.5
2017-09-15T07:30:20.524Z,1020.5
2017-09-15T07:31:22.257Z,1020.5
2017-09-15T07:32:24.351Z,1020.5
2017-09-15T07:33:26.047Z,1020.6
2017-09-15T07:34:27.772Z,1020.6
2017-09-15T07:35:29.495Z,1020.6
2017-09-15T07:36:31.208Z,1020.5
2017-09-15T07:37:32.903Z,1020.6
2017-09-15T07:38:34.610Z,1020.6
2017-09-15T07:39:37.381Z,1020.6
2017-09-15T07:40:39.084Z,1020.5
2017-09-15T07:41:40.785Z,1020.5
2017-09-15T07:42:42.531Z,1020.5
2017-09-15T07:43:44.251Z,1020.6
2017-09-15T07:44:45.929Z,1020.5
2017-09-15T07:45:47.690Z,1020.5
2017-09-15T07:46:49.384Z,1020.6
2017-09-15T07:47:51.169Z,1020.6
2017-09-15T07:48:52.851Z,1020.6
2017-09-15T07:49:54.565Z,1020.5
2017-09-15T07:50:56.279Z,1020.6
2017-09-15T07:51:57.971Z,1020.6
2017-09-15T07:52:59.706Z,1020.5
2017-09-15T07:54:01.437Z,1020.6
2017-09-15T07:55:03.149Z,1020.6
2017-09-15T07:56:04.866Z,1020.6
2017-09-15T07:57:06.586Z,1020.6
2017-09-15T07:58:08.289Z,1020.6
2017-09-15T07:59:09.992Z,1020.6
2017-09-15T08:00:11.704Z,1020.6
2017-09-15T08:01:13.423Z,1020.6
2017-09-15T08:02:15.169Z,1020.6
2017-09-15T08:03:16.880Z,1020.6
2017-09-15T08:04:18.593Z,1020.6
2017-09-15T08:05:20.316Z,1020.6
2017-09-15T08:06:21.989Z,1020.6
2017-09-15T08:07:23.694Z,1020.7
2017-09-15T08:08:25.474Z,1020.7
2017-09-15T08:09:27.217Z,1020.7
2017-09-15T08:10:28.936Z,1020.7
2017-09-15T08:11:30.640Z,1020.7
2017-09-15T08:12:32.345Z,1020.8
2017-09-15T08:13:34.077Z,1020.8
2017-09-15T08:14:35.790Z,1020.8
2017-09-15T08:15:37.480Z,1020.8
2017-09-15T08:16:39.199Z,1020.8
2017-09-15T08:17:41.683Z,1020.8
2017-09-15T08:18:43.465Z,1020.8
2017-09-15T08:49:41.158Z,1020.8
2017-09-15T08:50:42.876Z,1020.8
2017-09-15T08:51:44.678Z,1020.8
2017-09-15T08:52:46.404Z,1020.8
2017-09-15T08:53:48.114Z,1020.8
2017-09-15T08:54:49.847Z,1020.8
2017-09-15T08:55:51.625Z,1020.8
2017-09-15T08:56:53.323Z,1020.8
2017-09-15T08:57:55.093Z,1020.8
2017-09-15T08:58:56.813Z,1020.8
2017-09-15T08:59:58.514Z,1020.8
2017-09-15T09:01:00.237Z,1020.8
2017-09-15T09:02:01.940Z,1020.8
2017-09-15T09:03:03.632Z,1020.8
2017-09-15T09:04:05.329Z,1020.8
2017-09-15T09:05:07.056Z,1020.8
2017-09-15T09:06:08.751Z,1020.8
2017-09-15T09:07:10.493Z,1020.8
2017-09-15T09:08:12.229Z,1020.8
2017-09-15T09:09:13.978Z,1020.8
2017-09-15T09:10:15.675Z,1020.8
2017-09-15T09:11:17.431Z,1020.8
2017-09-15T09:12:19.151Z,1020.8
2017-09-15T09:13:20.931Z,1020.8
2017-09-15T09:14:22.655Z,1020.8
2017-09-15T09:15:24.382Z,1020.8
2017-09-15T09:16:26.075Z,1020.9
2017-09-15T09:17:27.767Z,1020.8
2017-09-15T09:18:29.528Z,1020.8
2017-09-15T09:19:31.267Z,1020.9
2017-09-15T09:20:32.969Z,1020.9
2017-09-15T09:21:34.715Z,1020.8
2017-09-15T09:22:36.442Z,1020.9
2017-09-15T09:23:38.151Z,1020.8
2017-09-15T09:24:39.962Z,1020.8
2017-09-15T09:25:41.703Z,1020.8
2017-09-15T09:26:43.374Z,1020.8
2017-09-15T09:27:45.063Z,1020.8
2017-09-15T09:28:46.797Z,1020.8
2017-09-15T09:29:48.528Z,1020.8
2017-09-15T09:30:50.267Z,1020.8
2017-09-15T09:31:51.970Z,1020.8
2017-09-15T09:32:53.675Z,1020.8
2017-09-15T09:33:55.374Z,1020.8
2017-09-15T09:34:57.078Z,1020.8
2017-09-15T09:35:58.780Z,1020.8
2017-09-15T09:37:00.490Z,1020.8
2017-09-15T09:38:02.203Z,1020.8
2017-09-15T09:39:03.918Z,1020.9
2017-09-15T09:40:05.615Z,1020.8
2017-09-15T09:41:07.334Z,1020.8
2017-09-15T09:42:09.063Z,1020.8
2017-09-15T09:43:10.756Z,1020.8
2017-09-15T09:44:12.475Z,1020.8
2017-09-15T09:45:14.209Z,1020.8
2017-09-15T09:46:16.021Z,1020.8
2017-09-15T09:47:17.735Z,1020.8
2017-09-15T09:48:19.433Z,1020.8
2017-09-15T09:49:21.136Z,1020.8
2017-09-15T09:50:22.834Z,1020.8
2017-09-15T09:51:24.544Z,1020.8
2017-09-15T09:52:26.293Z,1020.7
2017-09-15T09:53:28.019Z,1020.7
2017-09-15T09:54:29.725Z,1020.7
2017-09-15T09:55:31.445Z,1020.6
2017-09-15T09:56:33.153Z,1020.6
2017-09-15T09:57:34.841Z,1020.6
2017-09-15T09:58:36.608Z,1020.6
2017-09-15T09:59:38.307Z,1020.6
2017-09-15T10:00:40.002Z,1020.6
2017-09-15T10:01:41.740Z,1020.6
2017-09-15T10:02:43.452Z,1020.6
2017-09-15T10:03:45.168Z,1020.6
2017-09-15T10:04:46.874Z,1020.6
2017-09-15T10:05:48.588Z,1020.6
2017-09-15T10:06:50.278Z,1020.5
2017-09-15T10:07:52.153Z,1020.5
2017-09-15T10:08:53.868Z,1020.5
2017-09-15T10:09:55.585Z,1020.5
2017-09-15T10:10:57.262Z,1020.5
2017-09-15T10:11:59.006Z,1020.5
2017-09-15T10:13:00.724Z,1020.5
2017-09-15T10:14:02.445Z,1020.5
2017-09-15T10:15:04.160Z,1020.5
2017-09-15T10:16:07.422Z,1020.5
2017-09-15T10:17:09.194Z,1020.5
2017-09-15T10:18:10.880Z,1020.5
2017-09-15T10:19:12.582Z,1020.4
2017-09-15T10:20:14.298Z,1020.5
2017-09-15T10:21:16.016Z,1020.5
2017-09-15T10:22:17.721Z,1020.4
2017-09-15T10:23:19.444Z,1020.4
2017-09-15T10:24:21.136Z,1020.4
2017-09-15T10:25:22.876Z,1020.4
2017-09-15T10:26:24.593Z,1020.4
2017-09-15T10:27:26.323Z,1020.4
2017-09-15T10:28:28.011Z,1020.4
2017-09-15T10:29:29.751Z,1020.4
2017-09-15T10:30:31.419Z,1020.3
2017-09-15T10:31:33.186Z,1020.3
2017-09-15T10:32:34.900Z,1020.3
2017-09-15T10:33:36.620Z,1020.3
2017-09-15T10:34:38.315Z,1020.3
2017-09-15T10:35:40.018Z,1020.2
2017-09-15T10:36:41.747Z,1020.2
2017-09-15T10:37:43.452Z,1020.2
2017-09-15T10:38:45.202Z,1020.2
2017-09-15T10:39:46.928Z,1020.2
2017-09-15T10:40:48.628Z,1020.2
2017-09-15T10:41:50.357Z,1020.2
2017-09-15T10:42:52.073Z,1020.2
2017-09-15T10:43:53.809Z,1020.1
2017-09-15T10:44:55.532Z,1020.2
2017-09-15T10:45:57.249Z,1020.1
2017-09-15T10:46:58.974Z,1020.2
2017-09-15T10:48:00.673Z,1020.1
2017-09-15T10:49:02.374Z,1020.1
2017-09-15T10:50:04.095Z,1020.1
2017-09-15T10:51:05.890Z,1020.2
2017-09-15T10:52:07.625Z,1020.1
2017-09-15T10:53:09.383Z,1020.1
2017-09-15T10:54:11.092Z,1020.1
2017-09-15T10:55:12.849Z,1020.1
2017-09-15T10:56:14.574Z,1020.1
2017-09-15T10:57:16.286Z,1020.1
2017-09-15T10:58:17.995Z,1020.1
2017-09-15T10:59:19.703Z,1020.1
2017-09-15T11:00:21.420Z,1020.2
2017-09-15T11:01:23.124Z,1020.2
2017-09-15T11:02:24.863Z,1020.1
2017-09-15T11:03:26.600Z,1020.1
2017-09-15T11:04:28.309Z,1020.1
2017-09-15T11:05:30.036Z,1020.1
2017-09-15T11:06:31.759Z,1020.1
2017-09-15T11:07:33.495Z,1020.2
2017-09-15T11:08:35.200Z,1020.0
2017-09-15T11:09:36.913Z,1020.0
2017-09-15T11:10:38.614Z,1020.1
2017-09-15T11:11:40.409Z,1020.1
2017-09-15T11:12:42.126Z,1020.1
2017-09-15T11:13:43.856Z,1020.0
2017-09-15T11:14:45.569Z,1020.1
2017-09-15T11:15:47.261Z,1020.1
2017-09-15T11:16:48.961Z,1020.2
2017-09-15T11:17:50.672Z,1020.3
2017-09-15T11:18:52.363Z,1020.4
2017-09-15T11:19:54.066Z,1020.4
2017-09-15T11:20:55.781Z,1020.5
2017-09-15T11:21:57.526Z,1020.5
2017-09-15T11:22:59.256Z,1020.5
2017-09-15T11:24:00.959Z,1020.5
2017-09-15T11:25:02.738Z,1020.4
2017-09-15T11:26:04.464Z,1020.5
2017-09-15T11:27:06.213Z,1020.4
2017-09-15T11:28:07.932Z,1020.5
2017-09-15T11:29:09.637Z,1020.4
2017-09-15T11:30:11.346Z,1020.5
2017-09-15T11:31:13.072Z,1020.5
2017-09-15T11:32:14.785Z,1020.5
2017-09-15T11:33:16.503Z,1020.5
2017-09-15T11:34:18.215Z,1020.5
2017-09-15T11:35:19.946Z,1020.4
2017-09-15T11:36:21.664Z,1020.4
2017-09-15T11:37:23.394Z,1020.5
2017-09-15T11:38:25.118Z,1020.4
2017-09-15T11:39:26.840Z,1020.4
2017-09-15T11:40:28.549Z,1020.4
2017-09-15T11:41:30.254Z,1020.4
2017-09-15T11:42:31.970Z,1020.4
2017-09-15T11:43:33.694Z,1020.4
2017-09-15T11:44:35.416Z,1020.4
2017-09-15T11:45:37.149Z,1020.4
2017-09-15T11:46:39.441Z,1020.4
2017-09-15T11:47:41.143Z,1020.4
2017-09-15T11:48:42.868Z,1020.4
2017-09-15T11:49:44.747Z,1020.4
2017-09-15T11:50:46.442Z,1020.3
2017-09-15T11:51:48.149Z,1020.4
2017-09-15T11:52:50.014Z,1020.4
2017-09-15T11:53:51.758Z,1020.4
2017-09-15T11:54:53.498Z,1020.4
2017-09-15T11:55:55.256Z,1020.4
2017-09-15T11:56:56.994Z,1020.4
2017-09-15T11:57:58.691Z,1020.4
2017-09-15T11:59:00.433Z,1020.4
2017-09-15T12:00:02.290Z,1020.4
2017-09-15T12:01:04.015Z,1020.4
2017-09-15T12:02:05.736Z,1020.4
2017-09-15T12:03:07.479Z,1020.4
2017-09-15T12:04:09.177Z,1020.4
2017-09-15T12:05:10.890Z,1020.4
2017-09-15T12:06:12.637Z,1020.4
2017-09-15T12:07:14.384Z,1020.4
2017-09-15T12:08:16.155Z,1020.4
2017-09-15T12:09:17.880Z,1020.4
2017-09-15T12:10:19.625Z,1020.4
2017-09-15T12:11:21.338Z,1020.5
2017-09-15T12:12:23.080Z,1020.5
2017-09-15T12:13:25.527Z,1020.5
2017-09-15T12:14:27.223Z,1020.5
2017-09-15T12:15:28.976Z,1020.5
2017-09-15T12:16:30.697Z,1020.5
2017-09-15T12:17:32.421Z,1020.5
2017-09-15T12:18:34.144Z,1020.5
2017-09-15T12:19:36.675Z,1020.7
2017-09-15T12:20:38.373Z,1020.5
2017-09-15T12:21:40.110Z,1020.6
2017-09-15T12:22:41.846Z,1020.5
2017-09-15T12:23:43.660Z,1020.5
2017-09-15T12:24:45.441Z,1020.4
2017-09-15T12:25:47.174Z,1020.5
2017-09-15T12:26:49.144Z,1020.4
2017-09-15T12:27:50.888Z,1020.4
2017-09-15T12:28:52.627Z,1020.4
2017-09-15T12:29:54.366Z,1020.4
2017-09-15T12:30:56.103Z,1020.4
2017-09-15T12:31:57.811Z,1020.3
2017-09-15T12:32:59.552Z,1020.3
2017-09-15T12:34:01.288Z,1020.3
2017-09-15T12:35:03.053Z,1020.3
2017-09-15T12:36:04.792Z,1020.4
2017-09-15T12:37:06.526Z,1020.4
2017-09-15T12:38:08.288Z,1020.3
2017-09-15T12:39:10.025Z,1020.3
2017-09-15T12:40:12.006Z,1020.3
2017-09-15T12:41:13.701Z,1020.3
2017-09-15T12:42:15.473Z,1020.3
2017-09-15T12:43:18.057Z,1020.3
2017-09-15T12:44:19.997Z,1020.3
2017-09-15T12:45:22.464Z,1020.2
2017-09-15T12:46:25.847Z,1020.3
2017-09-15T12:47:28.135Z,1020.3
2017-09-15T12:48:30.256Z,1020.2
2017-09-15T12:49:32.033Z,1020.3
2017-09-15T12:50:34.155Z,1020.2
2017-09-15T12:51:36.201Z,1020.3
2017-09-15T12:52:38.163Z,1020.2
2017-09-15T12:53:40.113Z,1020.3
2017-09-15T12:54:42.075Z,1020.3
2017-09-15T12:55:44.133Z,1020.3
2017-09-15T12:56:46.917Z,1020.2
2017-09-15T12:57:48.724Z,1020.3
2017-09-15T12:58:50.537Z,1020.3
2017-09-15T12:59:52.355Z,1020.2
2017-09-15T13:00:54.355Z,1020.2
2017-09-15T13:01:56.127Z,1020.2
2017-09-15T13:02:57.998Z,1020.2
2017-09-15T13:03:59.756Z,1020.2
2017-09-15T13:05:01.775Z,1020.1
2017-09-15T13:06:03.471Z,1020.1
2017-09-15T13:07:05.209Z,1020.1
2017-09-15T13:08:06.962Z,1020.2
2017-09-15T13:09:08.773Z,1020.1
2017-09-15T13:10:10.489Z,1020.1
2017-09-15T13:11:12.216Z,1020.1
2017-09-15T13:12:13.925Z,1020.1
2017-09-15T13:13:15.655Z,1020.0
2017-09-15T13:14:17.375Z,1020.0
2017-09-15T13:15:19.095Z,1020.1
2017-09-15T13:16:20.835Z,1020.0
2017-09-15T13:17:22.548Z,1020.0
2017-09-15T13:18:24.252Z,1020.0
2017-09-15T13:19:25.976Z,1019.9
2017-09-15T13:20:27.747Z,1019.9